Flight Track Log - Related Links

Times and Time Zones

All times are in EDT time to prevent confusion due to time zone crossing. See the N7256A flight status page for this flight to view local times or setup timezone preferences in your user account.

Time Position Orientation Groundspeed Altitude Reporting Facility
EDT Latitude Longitude Course Direction KTS MPH feet Rate Location/Type
Fri 02:03:05 PM 41.9167 -88.2833 North 118 136 1,600  Level Chicago TRACON
Fri 02:04:05 PM 41.9333 -88.3333 294° West 127 146 2,200 619 Climbing Chicago TRACON
Fri 02:05:11 PM 41.9500 -88.3667 304° West 152 175 2,900 614 Climbing Chicago TRACON
Fri 02:06:12 PM 42.0000 -88.3667 360° North 148 170 3,500 545 Climbing Chicago TRACON
Fri 02:07:12 PM 42.0333 -88.3667 360° North 159 183 4,000 158 Climbing Chicago TRACON
Fri 02:08:00 PM 42.1902 -88.2389 North  Level Estimated
Fri 02:08:06 PM 42.0833 -88.3667 360° North 197 227 3,800  Level Chicago TRACON
Fri 02:08:22 PM 42.0894 -88.3642 17° North 163 188 3,800 538 Level Chicago Center
Fri 02:09:24 PM 42.1536 -88.3642 360° North 184 212 4,500 532 Climbing Chicago Center
Fri 02:10:26 PM 42.2008 -88.3569 North 175 201 4,900 194 Climbing Chicago Center
Fri 02:11:28 PM 42.2528 -88.3506 North 184 212 4,900  Level Chicago Center
Fri 02:12:30 PM 42.3039 -88.3192 24° Northeast 207 238 4,900  Level Chicago Center
Fri 02:13:32 PM 42.3508 -88.2719 37° Northeast 207 238 4,900 194 Level Chicago Center
Fri 02:14:34 PM 42.4047 -88.2753 357° North 194 223 5,300 435 Climbing Chicago Center
Fri 02:15:36 PM 42.4633 -88.2719 North 182 209 5,800 290 Climbing Chicago Center
Fri 02:16:38 PM 42.5181 -88.2731 359° North 193 222 5,900 48 Climbing Chicago Center
Fri 02:17:41 PM 42.5747 -88.2753 358° North 202 232 5,900 48 Level Chicago Center
Fri 02:18:43 PM 42.6306 -88.2733 North 201 231 6,000 435 Climbing Chicago Center
Fri 02:19:45 PM 42.6819 -88.2672 North 189 217 6,800 871 Climbing Chicago Center
Fri 02:20:47 PM 42.7350 -88.2642 North 167 192 7,800 823 Climbing Chicago Center
Fri 02:21:49 PM 42.7794 -88.2656 359° North 160 184 8,500 581 Climbing Chicago Center
Fri 02:22:51 PM 42.8267 -88.2608 North 166 191 9,000 290 Climbing Chicago Center
Fri 02:23:53 PM 42.8761 -88.2581 North 176 203 9,100 -48 Climbing Chicago Center
Fri 02:24:55 PM 42.9344 -88.2525 North 205 236 8,900 -97 Descending Chicago Center
Fri 02:25:57 PM 43.0022 -88.2489 North 209 241 8,900  Level Chicago Center
Fri 02:26:59 PM 43.0569 -88.2481 North 199 229 8,900  Level Chicago Center
Fri 02:28:01 PM 43.1117 -88.2486 360° North 197 227 8,900  Level Chicago Center
Fri 02:29:04 PM 43.1656 -88.2467 North 195 224 8,900  Level Chicago Center
Fri 02:30:06 PM 43.2203 -88.2450 North 196 226 8,900  Level Chicago Center
Fri 02:31:08 PM 43.2833 -88.2436 North 195 224 8,900  Level Chicago Center
Fri 02:32:10 PM 43.3378 -88.2389 North 196 226 8,900  Level Chicago Center
Fri 02:33:12 PM 43.3922 -88.2369 North 197 227 8,900  Level Chicago Center
Fri 02:34:14 PM 43.4475 -88.2353 North 199 229 8,900 48 Level Chicago Center
Fri 02:35:16 PM 43.5103 -88.2317 North 196 226 9,000 97 Climbing Chicago Center
Fri 02:36:18 PM 43.5631 -88.2289 North 191 220 9,100  Climbing Chicago Center
Fri 02:37:20 PM 43.6186 -88.2269 North 199 229 9,000 -71 Descending Chicago Center
Fri 02:37:42 PM 43.6364 -88.2256 North 199 229 9,000 -71 Level Minneapolis Center
Fri 02:38:44 PM 43.6928 -88.2228 North 202 232 8,900  Descending Minneapolis Center
Fri 02:39:46 PM 43.7569 -88.2189 North 198 228 9,000 48 Climbing Minneapolis Center
Fri 02:40:48 PM 43.8125 -88.2186 360° North 200 230 9,000  Level Minneapolis Center
Fri 02:41:50 PM 43.8664 -88.2233 356° North 196 226 9,000  Level Minneapolis Center
Fri 02:42:52 PM 43.9211 -88.2175 North 197 227 9,000 -48 Level Minneapolis Center
Fri 02:43:54 PM 43.9758 -88.2164 North 197 227 8,900  Descending Minneapolis Center
Fri 02:44:56 PM 44.0383 -88.2117 North 193 222 9,000 48 Climbing Minneapolis Center
Fri 02:45:58 PM 44.0914 -88.2106 North 190 219 9,000  Level Minneapolis Center
Fri 02:47:00 PM 44.1472 -88.2083 North 198 228 9,000  Level Minneapolis Center
Fri 02:48:02 PM 44.2025 -88.2036 North 198 228 9,000  Level Minneapolis Center
Fri 02:49:04 PM 44.2583 -88.2025 North 199 229 9,000  Level Minneapolis Center
Fri 02:50:06 PM 44.3239 -88.1989 North 201 231 9,000 -48 Level Minneapolis Center
Fri 02:51:08 PM 44.3800 -88.1958 North 202 232 8,900  Descending Minneapolis Center
Fri 02:52:10 PM 44.4361 -88.1936 North 201 231 9,000 48 Climbing Minneapolis Center
Fri 02:53:13 PM 44.4917 -88.1906 North 200 230 9,000 -48 Level Minneapolis Center
Fri 02:54:15 PM 44.5464 -88.1875 North 199 229 8,900  Descending Minneapolis Center
Fri 02:55:17 PM 44.6006 -88.1844 North 196 226 9,000 48 Climbing Minneapolis Center
Fri 02:56:19 PM 44.6642 -88.1814 North 197 227 9,000  Level Minneapolis Center
Fri 02:57:21 PM 44.7189 -88.1775 North 197 227 9,000  Level Minneapolis Center
Fri 02:58:23 PM 44.7731 -88.1747 North 194 223 9,000  Level Minneapolis Center
Fri 02:59:25 PM 44.8261 -88.1722 North 193 222 9,000  Level Minneapolis Center
Fri 03:00:27 PM 44.8806 -88.1703 North 196 226 9,000  Level Minneapolis Center
Fri 03:01:29 PM 44.9353 -88.1664 North 198 228 9,000  Level Minneapolis Center
Fri 03:02:31 PM 45.0017 -88.1636 North 199 229 9,000  Level Minneapolis Center
Fri 03:03:33 PM 45.0575 -88.1600 North 201 231 9,000 -97 Level Minneapolis Center
Fri 03:04:35 PM 45.1136 -88.1581 North 201 231 8,800 -532 Descending Minneapolis Center
Fri 03:05:37 PM 45.1764 -88.1517 North 222 255 7,900 -750 Descending Minneapolis Center
Fri 03:06:51 PM 45.2361 -88.1481 North 218 251 7,100 -794 Descending Minneapolis Center
Fri 03:07:53 PM 45.3053 -88.1453 North 209 241 6,100 -823 Descending Minneapolis Center
Fri 03:08:55 PM 45.3725 -88.1408 North 205 236 5,400 -774 Descending Minneapolis Center
Fri 03:09:57 PM 45.4283 -88.1386 North 203 234 4,500 -634 Descending Minneapolis Center
Fri 03:10:58 PM 45.4822 -88.1342 North 198 228 4,100 -341 Descending Minneapolis Center
Fri 03:12:00 PM 45.5331 -88.1314 North 189 217 3,800 -290 Descending Minneapolis Center
Fri 03:13:02 PM 45.5822 -88.1300 North 182 209 3,500 -242 Descending Minneapolis Center
Fri 03:14:04 PM 45.6389 -88.1233 North 180 207 3,300 -194 Descending Minneapolis Center

Login

Don't have an account? Register now (free) for customized features, flight alerts, and more!